createdAt,value
2023-05-21T00:02:12.028Z,95.51
2023-05-21T00:04:43.445Z,96.45
2023-05-21T00:07:15.436Z,96.65
2023-05-21T00:09:46.229Z,96.31
2023-05-21T00:12:15.188Z,96.08
2023-05-21T00:14:47.614Z,96.35
2023-05-21T00:17:16.575Z,96.48
2023-05-21T00:19:46.105Z,96.88
2023-05-21T00:22:26.768Z,97.17
2023-05-21T00:24:59.658Z,97.62
2023-05-21T00:27:28.242Z,97.46
2023-05-21T00:29:57.408Z,97.71
2023-05-21T00:32:29.828Z,98.37
2023-05-21T00:34:59.593Z,98.20
2023-05-21T00:37:30.217Z,97.79
2023-05-21T00:40:02.038Z,97.69
2023-05-21T00:42:32.285Z,98.52
2023-05-21T00:45:04.311Z,98.77
2023-05-21T00:47:38.746Z,98.68
2023-05-21T00:50:09.389Z,98.63
2023-05-21T00:52:43.720Z,99.07
2023-05-21T00:55:17.849Z,99.32
2023-05-21T00:57:50.035Z,99.70
2023-05-21T01:00:20.704Z,100.00
2023-05-21T01:02:53.519Z,100.00
2023-05-21T01:05:25.048Z,100.00
2023-05-21T01:08:03.700Z,100.00
2023-05-21T01:10:36.695Z,100.00
2023-05-21T01:13:10.479Z,100.00
2023-05-21T01:15:55.858Z,100.00
2023-05-21T01:18:29.132Z,100.00
2023-05-21T01:20:58.459Z,100.00
2023-05-21T01:23:30.469Z,100.00
2023-05-21T01:25:59.924Z,100.00
2023-05-21T01:28:30.097Z,100.00
2023-05-21T01:31:05.257Z,100.00
2023-05-21T01:33:45.411Z,100.00
2023-05-21T01:36:19.246Z,100.00
2023-05-21T01:38:57.356Z,100.00
2023-05-21T01:41:27.866Z,100.00
2023-05-21T01:43:58.710Z,100.00
2023-05-21T01:46:35.383Z,100.00
2023-05-21T01:49:06.208Z,100.00
2023-05-21T01:51:36.446Z,100.00
2023-05-21T01:54:07.717Z,100.00
2023-05-21T01:56:37.100Z,100.00
2023-05-21T01:59:06.126Z,100.00
2023-05-21T02:01:41.035Z,100.00
2023-05-21T02:04:11.615Z,100.00
2023-05-21T02:07:10.876Z,100.00
2023-05-21T02:09:45.164Z,100.00
2023-05-21T02:12:15.126Z,100.00
2023-05-21T02:14:49.262Z,100.00
2023-05-21T02:17:18.865Z,100.00
2023-05-21T02:19:47.861Z,100.00
2023-05-21T02:22:18.253Z,100.00
2023-05-21T02:24:49.634Z,100.00
2023-05-21T02:27:22.774Z,100.00
2023-05-21T02:29:54.186Z,100.00
2023-05-21T02:32:27.893Z,100.00
2023-05-21T02:34:59.977Z,100.00
2023-05-21T02:37:34.027Z,100.00
2023-05-21T02:40:11.240Z,100.00
2023-05-21T02:42:46.032Z,100.00
2023-05-21T02:45:22.380Z,100.00
2023-05-21T02:47:52.738Z,100.00
2023-05-21T02:51:05.569Z,100.00
2023-05-21T02:53:36.319Z,100.00
2023-05-21T02:56:09.607Z,100.00
2023-05-21T02:58:38.874Z,100.00
2023-05-21T03:01:16.407Z,100.00
2023-05-21T03:03:49.882Z,100.00
2023-05-21T03:06:26.310Z,100.00
2023-05-21T03:09:21.130Z,100.00
2023-05-21T03:11:56.754Z,100.00
2023-05-21T03:14:29.162Z,100.00
2023-05-21T03:16:59.221Z,100.00
2023-05-21T03:19:30.868Z,100.00
2023-05-21T03:22:03.167Z,100.00
2023-05-21T03:24:35.699Z,100.00
2023-05-21T03:27:07.592Z,100.00
2023-05-21T03:29:37.872Z,100.00
2023-05-21T03:32:09.169Z,100.00
2023-05-21T03:34:37.957Z,100.00
2023-05-21T03:37:07.581Z,100.00
2023-05-21T03:39:36.907Z,100.00
2023-05-21T03:42:07.848Z,100.00
2023-05-21T03:44:47.006Z,100.00
2023-05-21T03:47:39.159Z,100.00
2023-05-21T03:50:12.857Z,100.00
2023-05-21T03:52:55.050Z,100.00
2023-05-21T03:55:25.095Z,100.00
2023-05-21T03:57:59.751Z,100.00
2023-05-21T04:00:31.037Z,100.00
2023-05-21T04:03:02.615Z,100.00
2023-05-21T04:05:32.499Z,100.00
2023-05-21T04:08:05.332Z,100.00
2023-05-21T04:10:41.339Z,100.00
2023-05-21T04:13:21.899Z,100.00
2023-05-21T04:15:51.149Z,100.00
2023-05-21T04:18:20.817Z,100.00
2023-05-21T04:20:50.096Z,100.00
2023-05-21T04:23:19.364Z,100.00
2023-05-21T04:25:51.103Z,100.00
2023-05-21T04:28:21.428Z,100.00
2023-05-21T04:30:51.470Z,99.68
2023-05-21T04:33:20.500Z,99.19
2023-05-21T04:35:51.965Z,99.07
2023-05-21T04:38:21.287Z,99.02
2023-05-21T04:40:52.685Z,98.35
2023-05-21T04:43:26.607Z,98.00
2023-05-21T04:46:01.614Z,97.27
2023-05-21T04:48:31.039Z,97.06
2023-05-21T04:51:01.545Z,97.57
2023-05-21T04:53:31.242Z,96.84
2023-05-21T04:56:01.114Z,97.21
2023-05-21T04:58:34.605Z,96.17
2023-05-21T05:01:04.382Z,95.82
2023-05-21T05:03:33.544Z,95.06
2023-05-21T05:06:04.611Z,95.49
2023-05-21T05:08:35.042Z,94.86
2023-05-21T05:11:04.094Z,95.10
2023-05-21T05:13:34.244Z,94.05
2023-05-21T05:16:03.545Z,93.72
2023-05-21T05:18:33.336Z,93.57
2023-05-21T05:21:02.786Z,92.40
2023-05-21T05:23:32.496Z,92.38
2023-05-21T05:26:01.626Z,91.89
2023-05-21T05:28:31.528Z,91.83
2023-05-21T05:31:03.026Z,91.56
2023-05-21T05:33:32.425Z,90.80
2023-05-21T05:36:01.824Z,90.05
2023-05-21T05:38:31.360Z,89.29
2023-05-21T05:41:05.847Z,88.39
2023-05-21T05:43:34.893Z,87.41
2023-05-21T05:46:05.459Z,87.13
2023-05-21T05:48:34.460Z,86.93
2023-05-21T05:51:07.168Z,86.37
2023-05-21T05:53:37.701Z,85.34
2023-05-21T05:56:08.931Z,84.43
2023-05-21T05:58:39.254Z,84.07
2023-05-21T06:01:16.845Z,82.89
2023-05-21T06:03:47.699Z,83.32
2023-05-21T06:06:20.678Z,83.13
2023-05-21T06:08:50.289Z,82.56
2023-05-21T06:11:24.372Z,82.26
2023-05-21T06:13:53.434Z,81.30
2023-05-21T06:16:28.485Z,80.75
2023-05-21T06:19:00.336Z,80.45
2023-05-21T06:21:29.898Z,80.38
2023-05-21T06:23:58.946Z,79.92
2023-05-21T06:26:27.816Z,80.30
2023-05-21T06:28:59.373Z,80.72
2023-05-21T06:31:30.299Z,80.10
2023-05-21T06:34:01.764Z,79.48
2023-05-21T06:36:32.933Z,76.14
2023-05-21T06:39:05.660Z,78.62
2023-05-21T06:41:35.510Z,78.09
2023-05-21T06:44:19.038Z,78.34
2023-05-21T06:47:27.639Z,77.84
2023-05-21T06:49:58.699Z,76.93
2023-05-21T06:52:27.794Z,76.53
2023-05-21T06:54:56.968Z,76.83
2023-05-21T06:57:29.182Z,77.19
2023-05-21T07:00:00.149Z,76.11
2023-05-21T07:02:31.439Z,74.81
2023-05-21T07:05:01.603Z,74.15
2023-05-21T07:07:30.725Z,74.98
2023-05-21T07:10:01.126Z,74.33
2023-05-21T07:12:32.148Z,74.16
2023-05-21T07:15:01.834Z,74.50
2023-05-21T07:17:34.067Z,73.65
2023-05-21T07:20:02.957Z,72.59
2023-05-21T07:22:32.746Z,72.45
2023-05-21T07:25:04.940Z,71.36
2023-05-21T07:27:34.128Z,71.27
2023-05-21T07:30:03.388Z,71.99
2023-05-21T07:32:36.443Z,71.33
2023-05-21T07:35:06.220Z,70.05
2023-05-21T07:37:35.452Z,70.36
2023-05-21T07:40:08.001Z,69.60
2023-05-21T07:42:44.394Z,68.09
2023-05-21T07:45:15.220Z,68.07
2023-05-21T07:47:48.198Z,67.17
2023-05-21T07:50:17.520Z,68.02
2023-05-21T07:52:46.749Z,68.37
2023-05-21T07:55:15.826Z,65.50
2023-05-21T07:57:50.062Z,66.25
2023-05-21T08:00:21.156Z,65.60
2023-05-21T08:02:57.479Z,65.65
2023-05-21T08:05:27.923Z,64.09
2023-05-21T08:07:57.103Z,64.34
2023-05-21T08:10:26.854Z,64.21
2023-05-21T08:12:56.181Z,63.38
2023-05-21T08:15:27.384Z,62.04
2023-05-21T08:17:57.698Z,55.80
2023-05-21T08:20:33.953Z,60.47
2023-05-21T08:23:04.157Z,61.58
2023-05-21T08:25:42.880Z,61.03
2023-05-21T08:28:14.520Z,59.21
2023-05-21T08:30:45.074Z,59.87
2023-05-21T08:33:16.002Z,58.42
2023-05-21T08:35:46.751Z,57.97
2023-05-21T08:38:28.657Z,58.03
2023-05-21T08:41:24.636Z,58.74
2023-05-21T08:43:58.615Z,56.33
2023-05-21T08:46:34.027Z,58.69
2023-05-21T08:49:05.648Z,57.47
2023-05-21T08:51:35.824Z,58.35
2023-05-21T08:54:06.833Z,57.94
2023-05-21T08:56:36.622Z,57.96
2023-05-21T08:59:06.219Z,56.32
2023-05-21T09:01:38.942Z,54.60
2023-05-21T09:04:21.623Z,56.17
2023-05-21T09:06:58.249Z,56.69
2023-05-21T09:09:53.439Z,54.44
2023-05-21T09:12:22.532Z,55.16
2023-05-21T09:16:02.060Z,52.52
2023-05-21T09:18:32.428Z,53.92
2023-05-21T09:21:28.079Z,52.23
2023-05-21T09:24:01.988Z,54.25
2023-05-21T09:26:32.203Z,53.32
2023-05-21T09:29:07.780Z,51.38
2023-05-21T09:31:38.110Z,53.41
2023-05-21T09:34:07.355Z,51.95
2023-05-21T09:36:41.373Z,49.47
2023-05-21T09:39:12.143Z,52.11
2023-05-21T09:41:44.967Z,49.73
2023-05-21T09:44:14.665Z,50.57
2023-05-21T09:46:43.802Z,49.68
2023-05-21T09:49:26.487Z,48.54
2023-05-21T09:52:02.392Z,49.39
2023-05-21T09:54:34.120Z,49.47
2023-05-21T09:57:03.766Z,48.86
2023-05-21T09:59:41.434Z,47.01
2023-05-21T10:02:19.117Z,48.30
2023-05-21T10:04:50.726Z,49.20
2023-05-21T10:07:21.851Z,46.92
2023-05-21T10:09:51.373Z,48.16
2023-05-21T10:12:21.243Z,48.89
2023-05-21T10:15:05.413Z,46.06
2023-05-21T10:17:34.087Z,46.68
2023-05-21T10:20:05.265Z,44.48
2023-05-21T10:22:37.264Z,45.25
2023-05-21T10:25:08.413Z,46.46
2023-05-21T10:27:38.910Z,46.22
2023-05-21T10:30:10.414Z,45.59
2023-05-21T10:32:44.444Z,45.07
2023-05-21T10:35:17.525Z,43.72
2023-05-21T10:37:48.486Z,42.76
2023-05-21T10:40:18.078Z,44.83
2023-05-21T10:43:15.010Z,41.11
2023-05-21T10:45:58.114Z,44.36
2023-05-21T10:48:44.565Z,41.95
2023-05-21T10:51:29.059Z,41.97
2023-05-21T10:54:14.742Z,41.46
2023-05-21T10:56:48.612Z,46.30
2023-05-21T10:59:37.621Z,46.92
2023-05-21T11:02:15.484Z,48.41
2023-05-21T11:04:49.489Z,45.88
2023-05-21T11:07:25.016Z,44.77
2023-05-21T11:09:56.425Z,43.07
2023-05-21T11:12:26.487Z,42.09
2023-05-21T11:15:04.153Z,43.12
2023-05-21T11:17:42.411Z,39.47
2023-05-21T11:20:15.560Z,43.67
2023-05-21T11:22:48.053Z,41.34
2023-05-21T11:25:19.083Z,42.83
2023-05-21T11:27:49.338Z,42.84
2023-05-21T11:30:19.731Z,42.27
2023-05-21T11:33:21.242Z,39.79
2023-05-21T11:36:00.696Z,40.35
2023-05-21T11:38:31.275Z,42.43
2023-05-21T11:41:05.423Z,40.97
2023-05-21T11:43:34.440Z,41.25
2023-05-21T11:46:04.555Z,41.99
2023-05-21T11:48:33.969Z,40.94
2023-05-21T11:51:03.652Z,41.27
2023-05-21T11:53:32.871Z,41.43
2023-05-21T11:56:04.445Z,40.91
2023-05-21T11:58:34.168Z,40.55
2023-05-21T12:01:03.412Z,39.52
2023-05-21T12:03:36.632Z,39.23
2023-05-21T12:06:08.697Z,40.62
2023-05-21T12:08:38.764Z,41.90
2023-05-21T12:11:08.949Z,40.34
2023-05-21T12:13:38.884Z,41.61
2023-05-21T12:16:09.334Z,41.13
2023-05-21T12:18:40.596Z,39.66
2023-05-21T12:21:12.498Z,40.36
2023-05-21T12:23:42.435Z,40.71
2023-05-21T12:26:14.299Z,39.52
2023-05-21T12:28:44.022Z,40.29
2023-05-21T12:31:17.359Z,39.27
2023-05-21T12:33:47.793Z,40.70
2023-05-21T12:36:23.903Z,39.39
2023-05-21T12:38:53.305Z,40.81
2023-05-21T12:41:24.704Z,40.55
2023-05-21T12:43:54.254Z,40.77
2023-05-21T12:46:23.924Z,41.35
2023-05-21T12:48:55.659Z,39.32
2023-05-21T12:51:24.659Z,40.69
2023-05-21T12:53:54.795Z,41.03
2023-05-21T12:56:25.768Z,39.98
2023-05-21T12:58:55.852Z,41.41
2023-05-21T13:01:24.805Z,41.21
2023-05-21T13:03:54.043Z,40.29
2023-05-21T13:06:23.539Z,39.55
2023-05-21T13:08:52.657Z,39.23
2023-05-21T13:11:25.330Z,39.04
2023-05-21T13:13:54.974Z,39.34
2023-05-21T13:16:24.156Z,39.71
2023-05-21T13:18:53.268Z,39.25
2023-05-21T13:21:25.192Z,39.37
2023-05-21T13:23:54.203Z,39.17
2023-05-21T13:26:24.824Z,39.90
2023-05-21T13:28:53.962Z,39.97
2023-05-21T13:31:23.187Z,39.54
2023-05-21T13:33:52.604Z,40.49
2023-05-21T13:36:22.233Z,40.02
2023-05-21T13:38:51.266Z,40.78
2023-05-21T13:41:20.271Z,40.34
2023-05-21T13:43:51.124Z,38.41
2023-05-21T13:46:21.388Z,40.22
2023-05-21T13:48:52.874Z,40.24
2023-05-21T13:52:01.325Z,38.36
2023-05-21T13:57:34.742Z,41.06
2023-05-21T14:00:06.331Z,39.47
2023-05-21T14:02:43.470Z,40.69
2023-05-21T14:05:20.635Z,39.67
2023-05-21T14:07:52.600Z,40.43
2023-05-21T14:10:21.901Z,40.80
2023-05-21T14:12:59.233Z,40.76
2023-05-21T14:15:37.270Z,40.49
2023-05-21T14:21:05.101Z,41.72
2023-05-21T14:23:33.997Z,40.36
2023-05-21T14:26:02.964Z,40.99
2023-05-21T14:28:38.863Z,40.68
2023-05-21T14:31:15.227Z,40.63
2023-05-21T14:33:44.148Z,42.10
2023-05-21T14:36:13.137Z,41.39
2023-05-21T14:38:57.811Z,40.64
2023-05-21T14:41:42.373Z,41.86
2023-05-21T14:44:12.334Z,42.59
2023-05-21T14:49:50.898Z,41.49
2023-05-21T14:53:04.055Z,38.96
2023-05-21T14:55:37.204Z,41.05
2023-05-21T14:58:09.964Z,41.35
2023-05-21T15:07:29.601Z,42.75
2023-05-21T15:09:58.721Z,42.01
2023-05-21T15:12:27.586Z,41.70
2023-05-21T15:14:57.203Z,42.30
2023-05-21T15:17:26.014Z,41.74
2023-05-21T15:19:55.964Z,41.96
2023-05-21T15:22:26.282Z,42.94
2023-05-21T15:24:55.173Z,42.80
2023-05-21T15:27:25.209Z,42.12
2023-05-21T15:29:54.465Z,42.79
2023-05-21T15:32:24.376Z,42.13
2023-05-21T15:34:53.631Z,42.95
2023-05-21T15:37:22.957Z,42.52
2023-05-21T15:39:54.404Z,42.14
2023-05-21T15:42:23.379Z,41.33
2023-05-21T15:44:55.939Z,43.75
2023-05-21T15:47:25.290Z,43.22
2023-05-21T15:49:54.514Z,42.75
2023-05-21T15:52:23.771Z,43.40
2023-05-21T15:54:55.148Z,42.75
2023-05-21T15:57:24.210Z,43.33
2023-05-21T15:59:56.593Z,43.26
2023-05-21T16:02:25.917Z,42.45
2023-05-21T16:04:55.284Z,42.90
2023-05-21T16:07:25.226Z,42.77
2023-05-21T16:09:56.030Z,43.56
2023-05-21T16:12:24.734Z,44.07
2023-05-21T16:14:53.726Z,43.56
2023-05-21T16:17:24.390Z,42.30
2023-05-21T16:19:53.814Z,43.20
2023-05-21T16:22:24.414Z,43.20
2023-05-21T16:24:56.675Z,43.12
2023-05-21T16:27:27.554Z,42.94
2023-05-21T16:29:57.757Z,42.83
2023-05-21T16:32:28.603Z,42.95
2023-05-21T16:34:57.898Z,43.08
2023-05-21T16:37:30.333Z,42.54
2023-05-21T16:39:59.994Z,43.91
2023-05-21T16:42:41.900Z,42.88
2023-05-21T16:45:13.605Z,43.96
2023-05-21T16:47:45.124Z,44.05
2023-05-21T16:50:14.592Z,44.19
2023-05-21T16:52:43.997Z,43.59
2023-05-21T16:55:13.973Z,44.22
2023-05-21T16:57:44.501Z,44.09
2023-05-21T17:00:24.537Z,44.36
2023-05-21T17:03:00.540Z,44.67
2023-05-21T17:05:34.131Z,44.91
2023-05-21T17:08:04.122Z,45.87
2023-05-21T17:10:34.830Z,46.00
2023-05-21T17:13:18.316Z,46.53
2023-05-21T17:15:51.281Z,46.26
2023-05-21T17:18:20.832Z,46.80
2023-05-21T17:20:51.083Z,46.89
2023-05-21T17:23:20.425Z,47.39
2023-05-21T17:25:49.859Z,47.75
2023-05-21T17:28:20.748Z,47.24
2023-05-21T17:30:50.012Z,47.39
2023-05-21T17:33:20.563Z,48.24
2023-05-21T17:35:49.598Z,48.07
2023-05-21T17:38:21.353Z,47.85
2023-05-21T17:40:51.206Z,48.71
2023-05-21T17:43:21.844Z,49.20
2023-05-21T17:45:53.418Z,49.76
2023-05-21T17:48:30.436Z,49.97
2023-05-21T17:51:02.328Z,50.05
2023-05-21T17:53:31.338Z,50.01
2023-05-21T17:56:00.361Z,50.31
2023-05-21T17:58:34.971Z,50.77
2023-05-21T18:01:04.225Z,50.87
2023-05-21T18:03:36.614Z,51.80
2023-05-21T18:06:08.193Z,51.51
2023-05-21T18:08:38.567Z,52.17
2023-05-21T18:11:07.478Z,52.81
2023-05-21T18:13:37.726Z,53.18
2023-05-21T18:16:06.905Z,53.31
2023-05-21T18:18:36.014Z,54.42
2023-05-21T18:21:05.902Z,54.85
2023-05-21T18:23:34.571Z,56.24
2023-05-21T18:26:11.705Z,57.53
2023-05-21T18:28:45.450Z,57.65
2023-05-21T18:31:15.953Z,57.94
2023-05-21T18:33:45.002Z,58.22
2023-05-21T18:36:13.594Z,58.40
2023-05-21T18:38:42.787Z,58.31
2023-05-21T18:41:11.856Z,58.34
2023-05-21T18:43:45.897Z,58.13
2023-05-21T18:46:15.051Z,58.99
2023-05-21T18:48:44.003Z,59.76
2023-05-21T18:51:12.800Z,60.47
2023-05-21T18:53:41.962Z,62.09
2023-05-21T18:56:14.090Z,62.57
2023-05-21T18:58:44.815Z,63.03
2023-05-21T19:01:14.064Z,62.97
2023-05-21T19:03:43.082Z,63.27
2023-05-21T19:06:12.139Z,63.71
2023-05-21T19:08:41.505Z,63.90
2023-05-21T19:11:12.172Z,64.32
2023-05-21T19:13:40.951Z,63.87
2023-05-21T19:16:11.808Z,64.05
2023-05-21T19:18:43.500Z,64.41
2023-05-21T19:21:12.813Z,64.33
2023-05-21T19:23:52.012Z,64.98
2023-05-21T19:26:23.512Z,66.42
2023-05-21T19:28:55.918Z,66.98
2023-05-21T19:31:26.721Z,68.22
2023-05-21T19:33:56.234Z,68.13
2023-05-21T19:36:25.931Z,68.76
2023-05-21T19:38:54.835Z,70.22
2023-05-21T19:41:24.155Z,70.89
2023-05-21T19:43:53.258Z,70.46
2023-05-21T19:46:22.940Z,70.43
2023-05-21T19:48:53.673Z,70.94
2023-05-21T19:51:23.225Z,71.01
2023-05-21T19:53:52.379Z,71.81
2023-05-21T19:56:22.120Z,71.26
2023-05-21T19:58:50.892Z,71.13
2023-05-21T20:01:24.049Z,71.76
2023-05-21T20:03:55.478Z,71.89
2023-05-21T20:06:25.186Z,72.13
2023-05-21T20:08:55.499Z,72.67
2023-05-21T20:11:24.347Z,72.47
2023-05-21T20:13:53.525Z,73.27
2023-05-21T20:16:23.402Z,72.93
2023-05-21T20:18:57.261Z,73.74
2023-05-21T20:21:26.362Z,73.65
2023-05-21T20:23:55.982Z,74.41
2023-05-21T20:26:26.363Z,75.13
2023-05-21T20:28:55.984Z,75.66
2023-05-21T20:31:27.976Z,77.06
2023-05-21T20:33:59.002Z,77.17
2023-05-21T20:36:30.640Z,77.30
2023-05-21T20:39:02.219Z,77.81
2023-05-21T20:41:37.032Z,78.06
2023-05-21T20:44:07.523Z,78.92
2023-05-21T20:46:41.309Z,79.43
2023-05-21T20:49:12.053Z,79.68
2023-05-21T20:51:40.580Z,79.85
2023-05-21T20:54:09.232Z,80.45
2023-05-21T20:56:42.602Z,81.79
2023-05-21T20:59:12.281Z,82.30
2023-05-21T21:01:41.601Z,83.04
2023-05-21T21:04:12.285Z,83.80
2023-05-21T21:06:41.282Z,84.45
2023-05-21T21:09:10.132Z,84.51
2023-05-21T21:11:39.360Z,85.03
2023-05-21T21:14:11.065Z,84.81
2023-05-21T21:16:39.910Z,85.22
2023-05-21T21:19:08.773Z,85.28
2023-05-21T21:21:39.110Z,85.16
2023-05-21T21:24:09.023Z,85.03
2023-05-21T21:26:37.740Z,85.51
2023-05-21T21:29:06.571Z,85.93
2023-05-21T21:31:35.351Z,86.09
2023-05-21T21:34:04.456Z,86.09
2023-05-21T21:36:35.655Z,86.30
2023-05-21T21:39:05.870Z,86.54
2023-05-21T21:41:34.620Z,86.29
2023-05-21T21:44:04.035Z,86.51
2023-05-21T21:46:32.801Z,86.36
2023-05-21T21:49:02.736Z,86.85
2023-05-21T21:51:31.533Z,87.40
2023-05-21T21:54:00.379Z,87.45
2023-05-21T21:56:31.197Z,87.80
2023-05-21T21:59:02.121Z,88.42
2023-05-21T22:01:33.459Z,88.54
2023-05-21T22:04:03.109Z,88.80
2023-05-21T22:06:32.167Z,89.74
2023-05-21T22:09:01.002Z,90.17
2023-05-21T22:11:31.602Z,90.30
2023-05-21T22:14:01.059Z,90.84
2023-05-21T22:16:29.859Z,91.34
2023-05-21T22:18:59.528Z,92.35
2023-05-21T22:21:33.117Z,92.71
2023-05-21T22:24:02.160Z,92.86
2023-05-21T22:26:32.749Z,92.37
2023-05-21T22:29:03.114Z,91.75
2023-05-21T22:31:32.295Z,91.43
2023-05-21T22:34:04.079Z,90.90
2023-05-21T22:36:33.818Z,90.06
2023-05-21T22:39:02.489Z,89.71
2023-05-21T22:41:33.083Z,89.02
2023-05-21T22:44:02.023Z,88.86
2023-05-21T22:46:31.102Z,88.82
2023-05-21T22:49:00.341Z,88.98
2023-05-21T22:51:34.974Z,89.28
2023-05-21T22:54:04.101Z,89.12
2023-05-21T22:56:34.847Z,89.77
2023-05-21T22:59:03.483Z,90.71
2023-05-21T23:01:33.295Z,91.11
2023-05-21T23:04:02.837Z,91.23
2023-05-21T23:06:34.102Z,91.47
2023-05-21T23:09:06.636Z,92.05
2023-05-21T23:11:38.744Z,92.25
2023-05-21T23:14:07.423Z,91.94
2023-05-21T23:16:36.463Z,92.14
2023-05-21T23:19:08.283Z,91.90
2023-05-21T23:21:37.191Z,94.83
2023-05-21T23:24:07.628Z,90.97
2023-05-21T23:26:39.092Z,90.76
2023-05-21T23:29:08.404Z,90.55
2023-05-21T23:31:38.287Z,90.90
2023-05-21T23:34:10.512Z,90.97
2023-05-21T23:36:40.594Z,90.73
2023-05-21T23:39:11.052Z,91.14
2023-05-21T23:41:41.323Z,90.93
2023-05-21T23:44:11.403Z,90.99
2023-05-21T23:46:40.457Z,90.92
2023-05-21T23:49:09.291Z,90.30
2023-05-21T23:51:38.898Z,90.35
2023-05-21T23:54:08.249Z,90.27
2023-05-21T23:56:37.492Z,90.26
2023-05-21T23:59:07.517Z,90.28
